Time;durP1;ratioP1;P1;durP2;ratioP2;P2;SDS_P1;SDS_P2;PMS_P1;PMS_P2;Temp;Humidity;BMP_temperature;BMP_pressure;BME280_temperature;BME280_humidity;BME280_pressure;Samples;Min_cycle;Max_cycle;Signal;HPM_P1;HPM_P2
2023/07/01 00:00:54;;;;;;;56.23;22.87;;;;;;;;;;6285231;28;20052;-59
2023/07/01 00:04:15;;;;;;;43.65;20.27;;;;;;;;;;6298117;28;20040;-57
2023/07/01 00:07:15;;;;;;;49.07;20.70;;;;;;;;;;6296137;28;20040;-58
2023/07/01 00:10:16;;;;;;;52.20;20.70;;;;;;;;;;6296500;28;20559;-58
2023/07/01 00:13:16;;;;;;;40.33;19.37;;;;;;;;;;6297414;28;20040;-58
2023/07/01 00:16:17;;;;;;;47.27;20.57;;;;;;;;;;6296231;28;20491;-58
2023/07/01 00:19:18;;;;;;;42.93;19.07;;;;;;;;;;6290221;28;20054;-58
2023/07/01 00:22:19;;;;;;;50.97;20.60;;;;;;;;;;6304325;28;20047;-58
2023/07/01 00:25:19;;;;;;;52.10;21.70;;;;;;;;;;6303756;28;20043;-56
2023/07/01 00:28:20;;;;;;;47.70;21.47;;;;;;;;;;6299106;28;20087;-58
2023/07/01 00:31:21;;;;;;;51.90;20.47;;;;;;;;;;6301851;28;20087;-57
2023/07/01 00:34:21;;;;;;;50.73;22.27;;;;;;;;;;6294877;28;20040;-58
2023/07/01 00:37:22;;;;;;;49.03;23.30;;;;;;;;;;6302293;28;20445;-57
2023/07/01 00:40:23;;;;;;;47.77;20.60;;;;;;;;;;6307013;28;20069;-58
2023/07/01 00:43:23;;;;;;;56.27;21.70;;;;;;;;;;6303845;28;20044;-58
2023/07/01 00:46:24;;;;;;;48.70;21.70;;;;;;;;;;6303083;28;20043;-58
2023/07/01 00:49:24;;;;;;;47.93;20.83;;;;;;;;;;6300743;28;20044;-56
2023/07/01 00:52:25;;;;;;;44.90;20.90;;;;;;;;;;6306787;28;20040;-56
2023/07/01 00:55:26;;;;;;;43.83;20.30;;;;;;;;;;6305368;28;20048;-57
2023/07/01 00:58:26;;;;;;;48.17;22.63;;;;;;;;;;6301284;28;20131;-58
2023/07/01 01:01:36;;;;;;;45.90;21.27;;;;;;;;;;6305031;28;20059;-59
2023/07/01 01:04:53;;;;;;;47.50;21.27;;;;;;;;;;6301975;28;20544;-56
2023/07/01 01:08:11;;;;;;;46.85;20.95;;;;;;;;;;6303365;28;20358;-59
2023/07/01 01:11:14;;;;;;;47.67;21.52;;;;;;;;;;6304055;28;20040;-58
2023/07/01 01:14:16;;;;;;;48.03;22.27;;;;;;;;;;6304556;28;20104;-57
2023/07/01 01:17:19;;;;;;;48.40;22.02;;;;;;;;;;6301621;28;20094;-56
2023/07/01 01:20:20;;;;;;;44.35;22.60;;;;;;;;;;6301570;28;20051;-57
2023/07/01 01:23:43;;;;;;;49.83;22.90;;;;;;;;;;6302617;28;20068;-57
2023/07/01 01:26:47;;;;;;;54.10;23.02;;;;;;;;;;6303351;28;20058;-56
2023/07/01 01:29:49;;;;;;;47.97;21.52;;;;;;;;;;6303015;28;20048;-58
2023/07/01 01:32:50;;;;;;;47.20;22.10;;;;;;;;;;6300860;28;20040;-58
2023/07/01 01:35:52;;;;;;;56.97;22.42;;;;;;;;;;6305326;28;20132;-57
2023/07/01 01:38:57;;;;;;;49.90;23.55;;;;;;;;;;6302693;28;20036;-58
2023/07/01 01:42:08;;;;;;;45.83;23.30;;;;;;;;;;6296829;28;20345;-57
2023/07/01 01:45:09;;;;;;;44.63;23.05;;;;;;;;;;6300219;28;20596;-58
2023/07/01 01:48:11;;;;;;;48.53;22.83;;;;;;;;;;6304769;28;20561;-58
2023/07/01 01:51:14;;;;;;;53.70;22.92;;;;;;;;;;6300395;28;20174;-56
2023/07/01 01:54:16;;;;;;;51.42;23.70;;;;;;;;;;6298469;28;20075;-57
2023/07/01 01:57:16;;;;;;;40.13;21.70;;;;;;;;;;6299649;28;20047;-57
2023/07/01 02:00:17;;;;;;;49.63;22.77;;;;;;;;;;6299286;28;20044;-57
2023/07/01 02:03:18;;;;;;;43.50;22.63;;;;;;;;;;6297966;28;20513;-58
2023/07/01 02:06:19;;;;;;;42.60;22.47;;;;;;;;;;6301147;28;20048;-57
2023/07/01 02:09:19;;;;;;;51.20;22.57;;;;;;;;;;6298450;28;20093;-58
2023/07/01 02:12:20;;;;;;;47.10;23.30;;;;;;;;;;6295904;28;20032;-57
2023/07/01 02:15:20;;;;;;;43.37;22.40;;;;;;;;;;6300234;28;20499;-57
2023/07/01 02:18:21;;;;;;;49.67;22.83;;;;;;;;;;6298612;28;20594;-57
2023/07/01 02:21:21;;;;;;;41.50;21.47;;;;;;;;;;6298227;28;20059;-57
2023/07/01 02:24:22;;;;;;;41.77;21.30;;;;;;;;;;6304340;28;20130;-54
2023/07/01 02:27:23;;;;;;;44.30;21.83;;;;;;;;;;6302277;28;20036;-55
2023/07/01 02:30:23;;;;;;;39.50;21.47;;;;;;;;;;6300834;28;20431;-59
2023/07/01 02:33:24;;;;;;;40.77;21.77;;;;;;;;;;6293742;28;20429;-58
2023/07/01 02:36:25;;;;;;;45.20;21.33;;;;;;;;;;6298816;28;20036;-58
2023/07/01 02:39:25;;;;;;;40.20;21.27;;;;;;;;;;6295943;28;20042;-57
2023/07/01 02:42:26;;;;;;;36.73;21.73;;;;;;;;;;6294256;28;20147;-57
2023/07/01 02:45:26;;;;;;;43.97;22.20;;;;;;;;;;6296346;28;20053;-58
2023/07/01 02:48:27;;;;;;;39.77;22.23;;;;;;;;;;6297853;28;20139;-59
2023/07/01 02:51:27;;;;;;;35.40;21.73;;;;;;;;;;6302017;28;20495;-59
2023/07/01 02:54:28;;;;;;;42.43;23.47;;;;;;;;;;6298440;28;20098;-58
2023/07/01 02:57:29;;;;;;;42.47;23.07;;;;;;;;;;6300029;28;20055;-57
2023/07/01 03:00:30;;;;;;;43.53;23.83;;;;;;;;;;6297936;28;20069;-57
2023/07/01 03:03:30;;;;;;;42.07;24.70;;;;;;;;;;6297936;28;20398;-57
2023/07/01 03:06:31;;;;;;;49.97;26.83;;;;;;;;;;6307765;28;20063;-57
2023/07/01 03:09:31;;;;;;;48.97;26.93;;;;;;;;;;6300098;28;20155;-58
2023/07/01 03:12:32;;;;;;;48.53;27.23;;;;;;;;;;6297826;28;20139;-58
2023/07/01 03:15:32;;;;;;;46.53;27.80;;;;;;;;;;6300542;28;20052;-57
2023/07/01 03:18:33;;;;;;;45.07;27.03;;;;;;;;;;6299015;28;20068;-58
2023/07/01 03:21:35;;;;;;;43.47;26.87;;;;;;;;;;6296206;28;20113;-59
2023/07/01 03:24:36;;;;;;;43.80;26.17;;;;;;;;;;6296325;28;20048;-58
2023/07/01 03:27:37;;;;;;;45.90;27.13;;;;;;;;;;6297552;28;20582;-56
2023/07/01 03:30:37;;;;;;;42.25;27.38;;;;;;;;;;6298374;28;20097;-58
2023/07/01 03:33:38;;;;;;;43.03;26.47;;;;;;;;;;6304255;28;20040;-59
2023/07/01 03:36:38;;;;;;;46.70;27.80;;;;;;;;;;6297403;28;20052;-59
2023/07/01 03:39:39;;;;;;;49.77;28.67;;;;;;;;;;6297581;28;20671;-57
2023/07/01 03:42:41;;;;;;;47.17;28.73;;;;;;;;;;6295542;28;20044;-57
2023/07/01 03:45:42;;;;;;;52.55;31.05;;;;;;;;;;6297510;28;20039;-57
2023/07/01 03:48:43;;;;;;;48.83;30.23;;;;;;;;;;6298959;28;20044;-57
2023/07/01 03:51:43;;;;;;;55.10;32.17;;;;;;;;;;6298104;28;20040;-57
2023/07/01 03:54:44;;;;;;;55.53;31.23;;;;;;;;;;6299530;28;20143;-58
2023/07/01 03:57:44;;;;;;;57.30;30.93;;;;;;;;;;6303544;28;20044;-58
2023/07/01 04:00:45;;;;;;;58.20;31.93;;;;;;;;;;6305220;28;20062;-58
2023/07/01 04:03:45;;;;;;;51.13;31.20;;;;;;;;;;6306726;28;20418;-58
2023/07/01 04:06:46;;;;;;;60.17;31.67;;;;;;;;;;6301505;28;20557;-57
2023/07/01 04:09:48;;;;;;;50.07;31.00;;;;;;;;;;6301436;28;20056;-58
2023/07/01 04:12:49;;;;;;;50.28;30.42;;;;;;;;;;6301269;28;20071;-56
2023/07/01 04:15:49;;;;;;;52.73;31.00;;;;;;;;;;6300474;28;20044;-55
2023/07/01 04:18:50;;;;;;;56.07;31.00;;;;;;;;;;6301150;28;20051;-58
2023/07/01 04:21:51;;;;;;;50.43;30.50;;;;;;;;;;6301902;28;20048;-58
2023/07/01 04:24:51;;;;;;;51.80;30.47;;;;;;;;;;6299778;28;20063;-58
2023/07/01 04:27:52;;;;;;;50.17;30.63;;;;;;;;;;6301745;28;20036;-58
2023/07/01 04:30:53;;;;;;;48.60;30.20;;;;;;;;;;6300498;28;20059;-59
2023/07/01 04:33:54;;;;;;;52.73;30.70;;;;;;;;;;6300440;28;20041;-58
2023/07/01 04:36:55;;;;;;;52.75;31.63;;;;;;;;;;6300624;28;20054;-58
2023/07/01 04:39:55;;;;;;;57.33;32.33;;;;;;;;;;6301245;28;20415;-58
2023/07/01 04:42:56;;;;;;;49.67;29.63;;;;;;;;;;6299473;28;20202;-58
2023/07/01 04:45:57;;;;;;;50.37;30.00;;;;;;;;;;6301336;28;20040;-58
2023/07/01 04:48:59;;;;;;;50.28;31.38;;;;;;;;;;6300187;28;20043;-58
2023/07/01 04:51:59;;;;;;;48.53;30.73;;;;;;;;;;6299949;28;20040;-58
2023/07/01 04:55:00;;;;;;;53.40;32.20;;;;;;;;;;6302583;28;20143;-58
2023/07/01 04:58:01;;;;;;;52.73;32.43;;;;;;;;;;6301767;28;20437;-58
2023/07/01 05:01:01;;;;;;;57.63;35.13;;;;;;;;;;6301343;28;20047;-57
2023/07/01 05:04:02;;;;;;;64.57;37.67;;;;;;;;;;6302400;28;20047;-57
2023/07/01 05:07:03;;;;;;;68.30;38.83;;;;;;;;;;6300553;28;20157;-58
2023/07/01 05:10:04;;;;;;;70.47;40.40;;;;;;;;;;6300080;28;20036;-59
2023/07/01 05:13:05;;;;;;;67.82;39.30;;;;;;;;;;6300415;28;20044;-56
2023/07/01 05:16:05;;;;;;;68.80;38.07;;;;;;;;;;6300521;28;20498;-55
2023/07/01 05:19:06;;;;;;;66.23;35.73;;;;;;;;;;6298738;28;20380;-56
2023/07/01 05:22:06;;;;;;;60.20;36.30;;;;;;;;;;6297773;28;20043;-56
2023/07/01 05:25:08;;;;;;;62.67;35.40;;;;;;;;;;6306362;28;20047;-55
2023/07/01 05:28:08;;;;;;;62.05;35.28;;;;;;;;;;6297220;28;20033;-59
2023/07/01 05:31:09;;;;;;;62.40;36.30;;;;;;;;;;6299345;28;20555;-59
2023/07/01 05:34:09;;;;;;;63.60;36.40;;;;;;;;;;6307055;28;20059;-60
2023/07/01 05:37:10;;;;;;;61.83;34.10;;;;;;;;;;6293232;28;20083;-63
2023/07/01 05:40:12;;;;;;;64.83;35.10;;;;;;;;;;6302830;28;20452;-64
2023/07/01 05:43:12;;;;;;;60.67;33.10;;;;;;;;;;6298098;28;20054;-60
2023/07/01 05:46:13;;;;;;;58.50;34.77;;;;;;;;;;6300134;28;20040;-59
2023/07/01 05:49:14;;;;;;;58.57;33.60;;;;;;;;;;6299757;28;20048;-59
2023/07/01 05:52:14;;;;;;;54.37;32.83;;;;;;;;;;6299475;28;20102;-60
2023/07/01 05:55:15;;;;;;;58.40;33.63;;;;;;;;;;6301421;28;20059;-57
2023/07/01 05:58:15;;;;;;;55.00;32.57;;;;;;;;;;6306139;28;20158;-60
2023/07/01 06:01:16;;;;;;;49.07;30.33;;;;;;;;;;6297983;28;20040;-59
2023/07/01 06:04:17;;;;;;;52.13;31.27;;;;;;;;;;6293730;28;20456;-59
2023/07/01 06:07:17;;;;;;;48.53;30.87;;;;;;;;;;6309096;28;20560;-59
2023/07/01 06:10:18;;;;;;;48.77;29.90;;;;;;;;;;6300288;28;20128;-59
2023/07/01 06:13:19;;;;;;;46.40;28.63;;;;;;;;;;6298471;28;20448;-59
2023/07/01 06:16:20;;;;;;;47.15;28.55;;;;;;;;;;6310587;28;20562;-58
2023/07/01 06:19:21;;;;;;;41.77;27.40;;;;;;;;;;6308315;28;20527;-59
2023/07/01 06:22:21;;;;;;;44.47;28.63;;;;;;;;;;6296363;28;20044;-59
2023/07/01 06:25:22;;;;;;;39.90;26.30;;;;;;;;;;6302987;28;20068;-58
2023/07/01 06:28:22;;;;;;;38.87;26.70;;;;;;;;;;6302290;28;20533;-59
2023/07/01 06:31:23;;;;;;;39.30;26.33;;;;;;;;;;6305122;28;20074;-58
2023/07/01 06:34:24;;;;;;;41.37;26.27;;;;;;;;;;6301533;28;20036;-59
2023/07/01 06:37:24;;;;;;;35.40;23.83;;;;;;;;;;6298190;28;20562;-59
2023/07/01 06:40:25;;;;;;;37.03;24.80;;;;;;;;;;6299222;28;20047;-57
2023/07/01 06:43:25;;;;;;;35.03;24.07;;;;;;;;;;6298613;28;20131;-57
2023/07/01 06:46:26;;;;;;;35.93;23.70;;;;;;;;;;6302853;28;20457;-58
2023/07/01 06:49:27;;;;;;;31.88;23.17;;;;;;;;;;6305385;28;20036;-59
2023/07/01 06:52:28;;;;;;;31.73;22.63;;;;;;;;;;6298998;28;20052;-59
2023/07/01 06:55:30;;;;;;;34.83;23.87;;;;;;;;;;6298845;28;20055;-59
2023/07/01 06:58:30;;;;;;;;;;;;;;;;;;6298082;28;20064;-59
2023/07/01 07:01:32;;;;;;;33.35;22.63;;;;;;;;;;6303272;28;19967;-64
2023/07/01 07:04:33;;;;;;;36.13;22.87;;;;;;;;;;6303499;28;20481;-64
2023/07/01 07:07:33;;;;;;;38.80;24.77;;;;;;;;;;6297978;28;20174;-59
2023/07/01 07:10:34;;;;;;;33.20;24.10;;;;;;;;;;6297716;28;20037;-59
2023/07/01 07:13:34;;;;;;;34.87;24.70;;;;;;;;;;6296396;28;20036;-66
2023/07/01 07:16:35;;;;;;;35.60;23.77;;;;;;;;;;6297295;28;20044;-58
2023/07/01 07:19:37;;;;;;;36.37;23.27;;;;;;;;;;6298760;28;20507;-63
2023/07/01 07:22:37;;;;;;;36.58;24.08;;;;;;;;;;6298792;28;20040;-59
2023/07/01 07:25:38;;;;;;;32.03;22.77;;;;;;;;;;6296009;28;20048;-61
2023/07/01 07:28:38;;;;;;;34.93;24.03;;;;;;;;;;6295768;28;20040;-59
2023/07/01 07:31:39;;;;;;;34.17;25.03;;;;;;;;;;6300643;28;20057;-59
2023/07/01 07:34:40;;;;;;;38.00;25.03;;;;;;;;;;6299956;28;20048;-58
2023/07/01 07:37:41;;;;;;;34.80;25.60;;;;;;;;;;6301424;28;20567;-65
2023/07/01 07:40:43;;;;;;;35.60;24.73;;;;;;;;;;6300549;28;20964;-64
2023/07/01 07:43:43;;;;;;;37.17;25.50;;;;;;;;;;6301749;28;20039;-67
2023/07/01 07:46:44;;;;;;;37.07;25.93;;;;;;;;;;6304018;28;20390;-62
2023/07/01 07:49:45;;;;;;;34.15;24.15;;;;;;;;;;6300288;28;20445;-61
2023/07/01 07:52:46;;;;;;;40.87;25.93;;;;;;;;;;6296303;28;20052;-62
2023/07/01 07:55:46;;;;;;;33.67;25.37;;;;;;;;;;6303227;28;20491;-57
2023/07/01 07:58:47;;;;;;;41.73;27.30;;;;;;;;;;6302065;28;20044;-62
2023/07/01 08:01:48;;;;;;;42.33;28.75;;;;;;;;;;6302778;28;20693;-58
2023/07/01 08:04:49;;;;;;;46.73;31.10;;;;;;;;;;6299628;28;20102;-58
2023/07/01 08:07:49;;;;;;;41.70;28.40;;;;;;;;;;6301285;28;20051;-59
2023/07/01 08:10:52;;;;;;;45.17;30.63;;;;;;;;;;6302498;28;20052;-59
2023/07/01 08:13:53;;;;;;;46.17;30.02;;;;;;;;;;6299895;28;20684;-59
2023/07/01 08:16:54;;;;;;;47.97;30.33;;;;;;;;;;6301961;28;20037;-59
2023/07/01 08:19:54;;;;;;;49.38;32.85;;;;;;;;;;6301943;28;20075;-59
2023/07/01 08:22:55;;;;;;;50.33;32.43;;;;;;;;;;6300579;28;20036;-60
2023/07/01 08:25:56;;;;;;;45.17;31.03;;;;;;;;;;6302313;28;20055;-65
2023/07/01 08:28:56;;;;;;;48.10;30.03;;;;;;;;;;6300182;28;20402;-58
2023/07/01 08:31:59;;;;;;;45.23;29.37;;;;;;;;;;6300665;28;20078;-59
2023/07/01 08:34:59;;;;;;;44.95;29.83;;;;;;;;;;6302077;28;20583;-58
2023/07/01 08:38:00;;;;;;;42.67;28.23;;;;;;;;;;6299930;28;20187;-59
2023/07/01 08:41:03;;;;;;;42.07;29.50;;;;;;;;;;6300042;28;20036;-58
2023/07/01 08:44:05;;;;;;;45.10;28.92;;;;;;;;;;6298636;28;20085;-58
2023/07/01 08:47:07;;;;;;;41.97;29.35;;;;;;;;;;6300393;28;20064;-59
2023/07/01 08:50:09;;;;;;;52.65;30.63;;;;;;;;;;6302211;28;20079;-59
2023/07/01 08:53:11;;;;;;;44.47;28.40;;;;;;;;;;6299371;28;20528;-58
2023/07/01 08:56:13;;;;;;;40.03;28.45;;;;;;;;;;6300579;28;20046;-57
2023/07/01 08:59:14;;;;;;;37.45;28.52;;;;;;;;;;6297880;28;20052;-57
2023/07/01 09:02:15;;;;;;;37.72;26.70;;;;;;;;;;6302275;28;20131;-59
2023/07/01 09:05:16;;;;;;;35.57;26.00;;;;;;;;;;6301315;28;21475;-58
2023/07/01 09:08:17;;;;;;;38.05;25.73;;;;;;;;;;6301905;28;20036;-58
2023/07/01 09:11:18;;;;;;;32.30;24.73;;;;;;;;;;6297542;28;20041;-59
2023/07/01 09:14:20;;;;;;;39.47;26.55;;;;;;;;;;6300168;28;20052;-59
2023/07/01 09:17:46;;;;;;;38.93;26.13;;;;;;;;;;6299953;28;20109;-59
2023/07/01 09:20:48;;;;;;;36.92;26.42;;;;;;;;;;6297308;28;20052;-59
2023/07/01 09:23:49;;;;;;;;;;;;;;;;;;6308005;28;20070;-59
2023/07/01 09:26:52;;;;;;;39.20;25.23;;;;;;;;;;6301409;28;19920;-59
2023/07/01 09:29:53;;;;;;;38.97;27.00;;;;;;;;;;6301583;28;20101;-59
2023/07/01 09:33:15;;;;;;;35.00;26.67;;;;;;;;;;6298024;28;20044;-58
2023/07/01 09:36:24;;;;;;;36.78;24.77;;;;;;;;;;6296138;28;20047;-58
2023/07/01 09:39:34;;;;;;;36.83;25.58;;;;;;;;;;6304636;28;20772;-59
2023/07/01 09:42:49;;;;;;;37.40;26.35;;;;;;;;;;6304016;28;20048;-58
2023/07/01 09:45:56;;;;;;;33.50;24.25;;;;;;;;;;6299179;28;20052;-59
2023/07/01 09:48:56;;;;;;;34.05;24.83;;;;;;;;;;6297438;28;20486;-58
2023/07/01 09:52:00;;;;;;;34.28;25.10;;;;;;;;;;6298993;28;20085;-59
2023/07/01 09:55:02;;;;;;;38.08;26.08;;;;;;;;;;6298660;28;20052;-58
2023/07/01 09:58:03;;;;;;;37.97;26.02;;;;;;;;;;6298324;28;20242;-59
2023/07/01 10:01:03;;;;;;;38.47;26.37;;;;;;;;;;6298268;28;20047;-58
2023/07/01 10:04:04;;;;;;;40.10;26.50;;;;;;;;;;6299491;28;20169;-58
2023/07/01 10:07:07;;;;;;;39.00;27.50;;;;;;;;;;6299153;28;20033;-59
2023/07/01 10:10:12;;;;;;;37.53;26.30;;;;;;;;;;6298240;28;20039;-58
2023/07/01 10:13:13;;;;;;;38.80;26.42;;;;;;;;;;6301013;28;20080;-59
2023/07/01 10:16:14;;;;;;;37.83;26.13;;;;;;;;;;6300345;28;20028;-58
2023/07/01 10:19:29;;;;;;;39.97;27.92;;;;;;;;;;6300335;28;20048;-59
2023/07/01 10:22:31;;;;;;;40.15;27.02;;;;;;;;;;6300705;28;20036;-59
2023/07/01 10:25:35;;;;;;;;;;;;;;;;;;6301158;28;20377;-57
2023/07/01 10:28:36;;;;;;;38.55;25.50;;;;;;;;;;6302696;28;20075;-58
2023/07/01 10:31:36;;;;;;;43.53;27.67;;;;;;;;;;6300659;28;20040;-61
2023/07/01 10:34:52;;;;;;;40.90;26.77;;;;;;;;;;6302867;28;20456;-59
2023/07/01 10:38:21;;;;;;;41.30;26.40;;;;;;;;;;6298345;28;20446;-58
2023/07/01 10:41:52;;;;;;;41.88;28.27;;;;;;;;;;6290912;28;21010;-58
2023/07/01 10:44:52;;;;;;;43.33;28.50;;;;;;;;;;6295119;28;20055;-57
2023/07/01 10:47:53;;;;;;;42.20;27.90;;;;;;;;;;6296025;28;20163;-58
2023/07/01 10:51:04;;;;;;;43.50;27.27;;;;;;;;;;6296180;28;20578;-58
2023/07/01 10:54:07;;;;;;;45.73;27.10;;;;;;;;;;6295591;28;20051;-57
2023/07/01 10:57:15;;;;;;;40.45;24.98;;;;;;;;;;6299190;28;21101;-58
2023/07/01 11:00:35;;;;;;;42.47;27.10;;;;;;;;;;6298735;28;20523;-59
2023/07/01 11:03:36;;;;;;;42.08;26.67;;;;;;;;;;6298121;28;20492;-59
2023/07/01 11:06:53;;;;;;;37.80;25.63;;;;;;;;;;6296132;28;20075;-60
2023/07/01 11:09:55;;;;;;;39.80;24.98;;;;;;;;;;6307775;28;20040;-58
2023/07/01 11:12:59;;;;;;;;;;;;;;;;;;6298942;28;20044;-59
2023/07/01 11:16:09;;;;;;;44.42;25.88;;;;;;;;;;6286375;28;19920;-60
2023/07/01 11:19:15;;;;;;;42.33;26.13;;;;;;;;;;6304783;28;20138;-59
2023/07/01 11:22:16;;;;;;;39.78;24.08;;;;;;;;;;6298901;28;20068;-61
2023/07/01 11:25:17;;;;;;;39.08;23.85;;;;;;;;;;6299039;28;20058;-60
2023/07/01 11:28:33;;;;;;;44.90;26.23;;;;;;;;;;6300055;28;20032;-60
2023/07/01 11:31:36;;;;;;;41.70;25.23;;;;;;;;;;6311204;28;20047;-60
2023/07/01 11:34:36;;;;;;;46.30;26.73;;;;;;;;;;6307042;28;20056;-60
2023/07/01 11:37:37;;;;;;;43.63;27.43;;;;;;;;;;6301289;28;20948;-60
2023/07/01 11:40:39;;;;;;;50.00;29.43;;;;;;;;;;6302289;28;20044;-60
2023/07/01 11:43:40;;;;;;;44.95;27.08;;;;;;;;;;6299470;28;20044;-62
2023/07/01 11:46:43;;;;;;;49.30;28.33;;;;;;;;;;6313688;28;20040;-61
2023/07/01 11:49:44;;;;;;;49.15;29.25;;;;;;;;;;6299127;28;20127;-62
2023/07/01 11:52:44;;;;;;;47.20;28.77;;;;;;;;;;6313858;28;20048;-61
2023/07/01 11:55:45;;;;;;;47.00;28.90;;;;;;;;;;6314041;28;20056;-61
2023/07/01 11:58:49;;;;;;;48.30;28.37;;;;;;;;;;6312625;28;20096;-61
2023/07/01 12:01:49;;;;;;;46.58;28.50;;;;;;;;;;6300739;28;20249;-61
2023/07/01 12:04:53;;;;;;;48.03;28.33;;;;;;;;;;6311867;28;20485;-61
2023/07/01 12:07:55;;;;;;;47.13;27.73;;;;;;;;;;6310585;28;20489;-60
2023/07/01 12:10:55;;;;;;;;;;;;;;;;;;6314104;28;20040;-60
2023/07/01 12:13:56;;;;;;;47.40;27.57;;;;;;;;;;6312494;28;19930;-61
2023/07/01 12:16:57;;;;;;;46.97;29.00;;;;;;;;;;6315545;28;20063;-61
2023/07/01 12:19:58;;;;;;;52.57;29.10;;;;;;;;;;6317448;28;20078;-61
2023/07/01 12:22:59;;;;;;;50.42;29.58;;;;;;;;;;6315153;28;20082;-61
2023/07/01 12:25:59;;;;;;;50.20;29.17;;;;;;;;;;6302237;28;20063;-59
2023/07/01 12:29:00;;;;;;;47.33;28.50;;;;;;;;;;6306413;28;20044;-61
2023/07/01 12:32:01;;;;;;;52.00;30.03;;;;;;;;;;6314994;28;20138;-61
2023/07/01 12:35:01;;;;;;;53.60;30.77;;;;;;;;;;6315393;28;20493;-61
2023/07/01 12:38:03;;;;;;;48.53;28.53;;;;;;;;;;6315901;28;20083;-60
2023/07/01 12:41:04;;;;;;;52.20;30.40;;;;;;;;;;6317438;28;20044;-61
2023/07/01 12:44:07;;;;;;;54.75;31.75;;;;;;;;;;6306506;28;20477;-59
2023/07/01 12:47:08;;;;;;;52.38;31.15;;;;;;;;;;6294789;28;20109;-59
2023/07/01 12:50:09;;;;;;;49.13;30.07;;;;;;;;;;6288995;28;20078;-59
2023/07/01 12:53:12;;;;;;;46.50;28.50;;;;;;;;;;6293476;28;20052;-59
2023/07/01 12:56:13;;;;;;;48.22;28.55;;;;;;;;;;6293123;28;20041;-59
2023/07/01 12:59:14;;;;;;;51.80;29.73;;;;;;;;;;6290417;28;20051;-58
2023/07/01 13:02:14;;;;;;;47.43;29.37;;;;;;;;;;6293646;28;20047;-59
2023/07/01 13:05:18;;;;;;;50.93;30.17;;;;;;;;;;6281856;28;20051;-60
2023/07/01 13:08:19;;;;;;;48.13;30.48;;;;;;;;;;6288773;28;20051;-59
2023/07/01 13:11:19;;;;;;;48.67;29.35;;;;;;;;;;6288460;28;20048;-59
2023/07/01 13:14:22;;;;;;;46.77;28.03;;;;;;;;;;6291146;28;20550;-59
2023/07/01 13:17:37;;;;;;;47.70;29.90;;;;;;;;;;6290332;28;20693;-60
2023/07/01 13:20:38;;;;;;;46.97;30.33;;;;;;;;;;6297607;28;20175;-60
2023/07/01 13:23:38;;;;;;;46.30;27.93;;;;;;;;;;6290212;28;20362;-59
2023/07/01 13:26:40;;;;;;;47.63;27.77;;;;;;;;;;6292658;28;20102;-60
2023/07/01 13:29:41;;;;;;;44.40;27.25;;;;;;;;;;6286045;28;20634;-59
2023/07/01 13:32:41;;;;;;;44.43;28.03;;;;;;;;;;6292714;28;20044;-58
2023/07/01 13:35:42;;;;;;;46.10;28.60;;;;;;;;;;6294311;28;20047;-58
2023/07/01 13:38:42;;;;;;;50.07;28.67;;;;;;;;;;6287864;28;20147;-59
2023/07/01 13:41:43;;;;;;;45.73;28.80;;;;;;;;;;6290359;28;20487;-59
2023/07/01 13:44:50;;;;;;;44.45;27.10;;;;;;;;;;6287566;28;20504;-59
2023/07/01 13:47:51;;;;;;;44.65;27.58;;;;;;;;;;6287586;28;20127;-59
2023/07/01 13:50:52;;;;;;;42.67;27.40;;;;;;;;;;6292529;28;20181;-59
2023/07/01 13:53:52;;;;;;;45.40;28.58;;;;;;;;;;6288370;28;20056;-60
2023/07/01 13:56:56;;;;;;;46.80;28.07;;;;;;;;;;6286488;28;20056;-59
2023/07/01 13:59:57;;;;;;;50.65;29.17;;;;;;;;;;6292974;28;20292;-58
2023/07/01 14:02:57;;;;;;;41.17;27.60;;;;;;;;;;6294358;28;20044;-58
2023/07/01 14:05:58;;;;;;;39.87;26.93;;;;;;;;;;6288425;28;20056;-58
2023/07/01 14:08:59;;;;;;;46.17;28.70;;;;;;;;;;6287889;28;20049;-58
2023/07/01 14:12:00;;;;;;;42.83;27.30;;;;;;;;;;6286788;28;20090;-60
2023/07/01 14:15:05;;;;;;;44.00;28.05;;;;;;;;;;6285943;28;20044;-60
2023/07/01 14:18:14;;;;;;;44.90;27.88;;;;;;;;;;6286670;28;20134;-60
2023/07/01 14:21:16;;;;;;;45.47;28.05;;;;;;;;;;6294249;28;20476;-60
2023/07/01 14:24:23;;;;;;;47.00;28.48;;;;;;;;;;6284963;28;20128;-61
2023/07/01 14:27:29;;;;;;;51.55;29.88;;;;;;;;;;6290959;28;20077;-60
2023/07/01 14:31:01;;;;;;;48.63;26.67;;;;;;;;;;6296612;28;20594;-60
2023/07/01 14:34:04;;;;;;;45.38;27.02;;;;;;;;;;6290823;28;20056;-60
2023/07/01 14:37:05;;;;;;;47.00;27.92;;;;;;;;;;6285688;28;20106;-61
2023/07/01 14:40:08;;;;;;;52.20;27.40;;;;;;;;;;6292065;28;20048;-59
2023/07/01 14:43:10;;;;;;;47.38;28.83;;;;;;;;;;6280665;28;20407;-56
2023/07/01 14:46:10;;;;;;;48.97;28.23;;;;;;;;;;6289453;28;20430;-57
2023/07/01 14:49:11;;;;;;;49.17;29.40;;;;;;;;;;6293434;28;20052;-57
2023/07/01 14:52:12;;;;;;;47.20;28.73;;;;;;;;;;6286477;28;20450;-60
2023/07/01 14:55:12;;;;;;;45.27;28.23;;;;;;;;;;6284240;28;20285;-59
2023/07/01 14:58:13;;;;;;;43.57;27.80;;;;;;;;;;6294490;28;20048;-59
2023/07/01 15:01:15;;;;;;;53.77;28.70;;;;;;;;;;6289393;28;20052;-59
2023/07/01 15:04:16;;;;;;;48.58;28.35;;;;;;;;;;6289041;28;20044;-60
2023/07/01 15:07:16;;;;;;;45.60;28.60;;;;;;;;;;6287820;28;20047;-60
2023/07/01 15:10:17;;;;;;;46.00;28.60;;;;;;;;;;6288535;28;20044;-60
2023/07/01 15:13:17;;;;;;;46.30;28.03;;;;;;;;;;6286725;28;20047;-60
2023/07/01 15:16:19;;;;;;;46.90;28.00;;;;;;;;;;6286780;28;20051;-59
2023/07/01 15:19:19;;;;;;;;;;;;;;;;;;6295341;28;20132;-59
2023/07/01 15:22:20;;;;;;;48.53;28.70;;;;;;;;;;6285939;28;19930;-63
2023/07/01 15:25:20;;;;;;;45.27;26.83;;;;;;;;;;6288903;28;20052;-60
2023/07/01 15:28:22;;;;;;;48.43;28.37;;;;;;;;;;6289127;28;20048;-61
2023/07/01 15:31:22;;;;;;;45.03;27.10;;;;;;;;;;6298136;28;20288;-60
2023/07/01 15:34:23;;;;;;;43.40;26.93;;;;;;;;;;6288781;28;20515;-60
2023/07/01 15:37:23;;;;;;;49.03;26.30;;;;;;;;;;6295047;28;20988;-60
2023/07/01 15:40:26;;;;;;;48.90;28.43;;;;;;;;;;6294528;28;20139;-60
2023/07/01 15:43:26;;;;;;;49.58;26.98;;;;;;;;;;6293414;28;20298;-61
2023/07/01 15:46:27;;;;;;;43.03;26.17;;;;;;;;;;6286394;28;20189;-60
2023/07/01 15:49:29;;;;;;;44.10;25.40;;;;;;;;;;6294736;28;20044;-60
2023/07/01 15:52:30;;;;;;;44.05;25.60;;;;;;;;;;6295115;28;20043;-61
2023/07/01 15:55:30;;;;;;;44.47;25.43;;;;;;;;;;6293624;28;20530;-58
2023/07/01 15:58:31;;;;;;;47.03;26.70;;;;;;;;;;6300476;28;20048;-58
2023/07/01 16:01:31;;;;;;;43.97;24.93;;;;;;;;;;6299755;28;20496;-57
2023/07/01 16:04:34;;;;;;;46.85;25.60;;;;;;;;;;6292440;28;20476;-60
2023/07/01 16:08:01;;;;;;;44.20;26.55;;;;;;;;;;6296531;28;20055;-57
2023/07/01 16:11:17;;;;;;;45.38;25.70;;;;;;;;;;6295870;28;20056;-57
2023/07/01 16:14:18;;;;;;;48.92;25.75;;;;;;;;;;6290313;28;20407;-59
2023/07/01 16:17:19;;;;;;;47.67;26.67;;;;;;;;;;6289263;28;20149;-57
2023/07/01 16:20:31;;;;;;;43.40;25.77;;;;;;;;;;6295599;28;20293;-60
2023/07/01 16:23:33;;;;;;;47.67;27.38;;;;;;;;;;6296270;28;20051;-60
2023/07/01 16:26:41;;;;;;;45.42;26.85;;;;;;;;;;6292806;28;20127;-58
2023/07/01 16:29:42;;;;;;;45.20;26.38;;;;;;;;;;6294148;28;20470;-58
2023/07/01 16:32:43;;;;;;;44.43;26.20;;;;;;;;;;6299885;28;20055;-57
2023/07/01 16:35:52;;;;;;;47.10;27.02;;;;;;;;;;6287416;28;20094;-56
2023/07/01 16:38:59;;;;;;;49.42;27.50;;;;;;;;;;6289474;28;20043;-60
2023/07/01 16:42:00;;;;;;;48.08;27.83;;;;;;;;;;6292127;28;20060;-59
2023/07/01 16:45:00;;;;;;;49.40;28.10;;;;;;;;;;6288353;28;20056;-61
2023/07/01 16:48:01;;;;;;;46.30;27.90;;;;;;;;;;6282667;28;20288;-61
2023/07/01 16:51:03;;;;;;;49.30;28.67;;;;;;;;;;6294766;28;20036;-64
2023/07/01 16:54:32;;;;;;;50.05;28.95;;;;;;;;;;6298009;28;20136;-61
2023/07/01 16:57:36;;;;;;;48.78;28.35;;;;;;;;;;6289951;28;20048;-59
2023/07/01 17:00:36;;;;;;;45.30;26.23;;;;;;;;;;6289487;28;20052;-59
2023/07/01 17:03:38;;;;;;;47.87;27.37;;;;;;;;;;6294273;28;20036;-61
2023/07/01 17:06:46;;;;;;;48.65;27.98;;;;;;;;;;6295553;28;20503;-58
2023/07/01 17:09:49;;;;;;;45.58;26.73;;;;;;;;;;6288623;28;20041;-60
2023/07/01 17:12:50;;;;;;;46.38;26.63;;;;;;;;;;6292523;28;20140;-58
2023/07/01 17:15:51;;;;;;;48.25;26.67;;;;;;;;;;6286535;28;20055;-61
2023/07/01 17:18:54;;;;;;;47.55;25.88;;;;;;;;;;6292424;28;20499;-58
2023/07/01 17:21:54;;;;;;;48.53;25.50;;;;;;;;;;6287317;28;20043;-58
2023/07/01 17:24:55;;;;;;;45.13;26.90;;;;;;;;;;6281695;28;20052;-59
2023/07/01 17:27:56;;;;;;;48.72;27.15;;;;;;;;;;6292296;28;20591;-58
2023/07/01 17:30:57;;;;;;;48.67;28.00;;;;;;;;;;6290983;28;20666;-58
2023/07/01 17:33:57;;;;;;;48.63;27.33;;;;;;;;;;6289928;28;20044;-60
2023/07/01 17:36:58;;;;;;;50.45;27.75;;;;;;;;;;6284871;28;20135;-59
2023/07/01 17:39:59;;;;;;;49.30;29.20;;;;;;;;;;6288344;28;20426;-54
2023/07/01 17:42:59;;;;;;;49.00;28.17;;;;;;;;;;6290093;28;20048;-58